sensor_id;sensor_type;location;lat;lon;timestamp;P1;durP1;ratioP1;P2;durP2;ratioP2
4074;SDS011;2052;53.522;9.806;2023-05-07T00:01:32;23.77;;;13.70;;
4074;SDS011;2052;53.522;9.806;2023-05-07T00:03:59;26.43;;;15.33;;
4074;SDS011;2052;53.522;9.806;2023-05-07T00:06:25;21.07;;;14.10;;
4074;SDS011;2052;53.522;9.806;2023-05-07T00:08:53;19.93;;;13.33;;
4074;SDS011;2052;53.522;9.806;2023-05-07T00:11:22;26.53;;;14.40;;
4074;SDS011;2052;53.522;9.806;2023-05-07T00:13:49;19.33;;;13.17;;
4074;SDS011;2052;53.522;9.806;2023-05-07T00:16:25;23.10;;;14.10;;
4074;SDS011;2052;53.522;9.806;2023-05-07T00:18:55;23.00;;;13.77;;
4074;SDS011;2052;53.522;9.806;2023-05-07T00:21:22;21.73;;;13.80;;
4074;SDS011;2052;53.522;9.806;2023-05-07T00:23:52;24.10;;;13.50;;
4074;SDS011;2052;53.522;9.806;2023-05-07T00:26:25;22.13;;;14.03;;
4074;SDS011;2052;53.522;9.806;2023-05-07T00:28:55;25.07;;;15.13;;
4074;SDS011;2052;53.522;9.806;2023-05-07T00:31:28;24.90;;;15.33;;
4074;SDS011;2052;53.522;9.806;2023-05-07T00:33:58;24.03;;;15.50;;
4074;SDS011;2052;53.522;9.806;2023-05-07T00:36:31;23.70;;;14.70;;
4074;SDS011;2052;53.522;9.806;2023-05-07T00:38:59;21.20;;;13.23;;
4074;SDS011;2052;53.522;9.806;2023-05-07T00:41:34;23.17;;;12.97;;
4074;SDS011;2052;53.522;9.806;2023-05-07T00:44:01;22.73;;;12.73;;
4074;SDS011;2052;53.522;9.806;2023-05-07T00:46:29;19.40;;;13.17;;
4074;SDS011;2052;53.522;9.806;2023-05-07T00:48:57;21.13;;;12.90;;
4074;SDS011;2052;53.522;9.806;2023-05-07T00:51:24;20.73;;;14.30;;
4074;SDS011;2052;53.522;9.806;2023-05-07T00:53:51;21.13;;;13.40;;
4074;SDS011;2052;53.522;9.806;2023-05-07T00:56:18;25.20;;;14.83;;
4074;SDS011;2052;53.522;9.806;2023-05-07T00:58:45;22.43;;;14.03;;
4074;SDS011;2052;53.522;9.806;2023-05-07T01:01:12;27.50;;;15.30;;
4074;SDS011;2052;53.522;9.806;2023-05-07T01:03:42;22.70;;;15.27;;
4074;SDS011;2052;53.522;9.806;2023-05-07T01:06:08;23.13;;;13.50;;
4074;SDS011;2052;53.522;9.806;2023-05-07T01:08:37;20.90;;;13.47;;
4074;SDS011;2052;53.522;9.806;2023-05-07T01:11:05;21.73;;;13.33;;
4074;SDS011;2052;53.522;9.806;2023-05-07T01:13:34;31.70;;;14.30;;
4074;SDS011;2052;53.522;9.806;2023-05-07T01:16:01;20.73;;;12.80;;
4074;SDS011;2052;53.522;9.806;2023-05-07T01:18:28;18.57;;;12.93;;
4074;SDS011;2052;53.522;9.806;2023-05-07T01:20:56;21.83;;;13.13;;
4074;SDS011;2052;53.522;9.806;2023-05-07T01:23:26;23.27;;;13.07;;
4074;SDS011;2052;53.522;9.806;2023-05-07T01:25:54;20.00;;;12.13;;
4074;SDS011;2052;53.522;9.806;2023-05-07T01:28:21;20.93;;;12.53;;
4074;SDS011;2052;53.522;9.806;2023-05-07T01:30:49;19.43;;;11.50;;
4074;SDS011;2052;53.522;9.806;2023-05-07T01:33:19;17.90;;;11.90;;
4074;SDS011;2052;53.522;9.806;2023-05-07T01:35:49;16.30;;;11.27;;
4074;SDS011;2052;53.522;9.806;2023-05-07T01:38:18;17.67;;;10.80;;
4074;SDS011;2052;53.522;9.806;2023-05-07T01:40:46;16.77;;;10.57;;
4074;SDS011;2052;53.522;9.806;2023-05-07T01:43:13;14.27;;;9.97;;
4074;SDS011;2052;53.522;9.806;2023-05-07T01:45:42;16.70;;;10.43;;
4074;SDS011;2052;53.522;9.806;2023-05-07T01:48:10;17.23;;;10.90;;
4074;SDS011;2052;53.522;9.806;2023-05-07T01:50:37;17.93;;;10.10;;
4074;SDS011;2052;53.522;9.806;2023-05-07T01:53:05;17.53;;;10.57;;
4074;SDS011;2052;53.522;9.806;2023-05-07T01:55:31;15.93;;;10.60;;
4074;SDS011;2052;53.522;9.806;2023-05-07T01:57:59;14.27;;;10.37;;
4074;SDS011;2052;53.522;9.806;2023-05-07T02:00:26;20.43;;;10.07;;
4074;SDS011;2052;53.522;9.806;2023-05-07T02:02:52;15.00;;;8.93;;
4074;SDS011;2052;53.522;9.806;2023-05-07T02:05:19;14.70;;;9.37;;
4074;SDS011;2052;53.522;9.806;2023-05-07T02:07:46;15.87;;;9.50;;
4074;SDS011;2052;53.522;9.806;2023-05-07T02:10:13;16.20;;;9.93;;
4074;SDS011;2052;53.522;9.806;2023-05-07T02:12:39;14.90;;;10.70;;
4074;SDS011;2052;53.522;9.806;2023-05-07T02:15:09;17.03;;;9.77;;
4074;SDS011;2052;53.522;9.806;2023-05-07T02:17:38;13.97;;;8.77;;
4074;SDS011;2052;53.522;9.806;2023-05-07T02:20:06;17.23;;;10.10;;
4074;SDS011;2052;53.522;9.806;2023-05-07T02:22:38;15.63;;;10.00;;
4074;SDS011;2052;53.522;9.806;2023-05-07T02:25:04;13.80;;;9.43;;
4074;SDS011;2052;53.522;9.806;2023-05-07T02:27:35;15.90;;;10.67;;
4074;SDS011;2052;53.522;9.806;2023-05-07T02:30:01;11.53;;;9.00;;
4074;SDS011;2052;53.522;9.806;2023-05-07T02:32:29;18.17;;;9.97;;
4074;SDS011;2052;53.522;9.806;2023-05-07T02:34:56;17.07;;;10.60;;
4074;SDS011;2052;53.522;9.806;2023-05-07T02:37:22;15.53;;;10.20;;
4074;SDS011;2052;53.522;9.806;2023-05-07T02:39:49;16.33;;;10.90;;
4074;SDS011;2052;53.522;9.806;2023-05-07T02:42:15;13.83;;;9.90;;
4074;SDS011;2052;53.522;9.806;2023-05-07T02:44:42;15.63;;;10.10;;
4074;SDS011;2052;53.522;9.806;2023-05-07T02:47:08;15.90;;;11.03;;
4074;SDS011;2052;53.522;9.806;2023-05-07T02:49:36;14.00;;;9.33;;
4074;SDS011;2052;53.522;9.806;2023-05-07T02:52:03;13.97;;;9.80;;
4074;SDS011;2052;53.522;9.806;2023-05-07T02:54:29;14.63;;;9.87;;
4074;SDS011;2052;53.522;9.806;2023-05-07T02:56:56;15.17;;;10.67;;
4074;SDS011;2052;53.522;9.806;2023-05-07T02:59:23;14.53;;;10.07;;
4074;SDS011;2052;53.522;9.806;2023-05-07T03:01:51;14.43;;;9.90;;
4074;SDS011;2052;53.522;9.806;2023-05-07T03:04:18;15.67;;;10.50;;
4074;SDS011;2052;53.522;9.806;2023-05-07T03:06:48;17.03;;;11.20;;
4074;SDS011;2052;53.522;9.806;2023-05-07T03:09:15;14.20;;;10.77;;
4074;SDS011;2052;53.522;9.806;2023-05-07T03:11:41;14.57;;;10.43;;
4074;SDS011;2052;53.522;9.806;2023-05-07T03:14:08;16.17;;;10.10;;
4074;SDS011;2052;53.522;9.806;2023-05-07T03:16:35;24.50;;;11.13;;
4074;SDS011;2052;53.522;9.806;2023-05-07T03:19:01;17.00;;;10.53;;
4074;SDS011;2052;53.522;9.806;2023-05-07T03:21:28;17.67;;;11.50;;
4074;SDS011;2052;53.522;9.806;2023-05-07T03:23:57;17.30;;;11.77;;
4074;SDS011;2052;53.522;9.806;2023-05-07T03:26:24;17.00;;;11.43;;
4074;SDS011;2052;53.522;9.806;2023-05-07T03:28:50;18.00;;;10.77;;
4074;SDS011;2052;53.522;9.806;2023-05-07T03:31:17;19.30;;;11.00;;
4074;SDS011;2052;53.522;9.806;2023-05-07T03:33:50;15.50;;;11.07;;
4074;SDS011;2052;53.522;9.806;2023-05-07T03:36:17;16.27;;;11.27;;
4074;SDS011;2052;53.522;9.806;2023-05-07T03:38:44;17.43;;;11.63;;
4074;SDS011;2052;53.522;9.806;2023-05-07T03:41:12;16.70;;;11.20;;
4074;SDS011;2052;53.522;9.806;2023-05-07T03:43:39;19.27;;;13.00;;
4074;SDS011;2052;53.522;9.806;2023-05-07T03:46:05;18.13;;;11.67;;
4074;SDS011;2052;53.522;9.806;2023-05-07T03:48:32;18.80;;;11.77;;
4074;SDS011;2052;53.522;9.806;2023-05-07T03:50:59;22.07;;;12.40;;
4074;SDS011;2052;53.522;9.806;2023-05-07T03:53:25;19.67;;;11.63;;
4074;SDS011;2052;53.522;9.806;2023-05-07T03:55:52;21.93;;;12.73;;
4074;SDS011;2052;53.522;9.806;2023-05-07T03:58:19;18.90;;;11.20;;
4074;SDS011;2052;53.522;9.806;2023-05-07T04:00:46;18.67;;;12.53;;
4074;SDS011;2052;53.522;9.806;2023-05-07T04:03:13;19.10;;;12.23;;
4074;SDS011;2052;53.522;9.806;2023-05-07T04:05:40;17.50;;;11.60;;
4074;SDS011;2052;53.522;9.806;2023-05-07T04:08:07;15.87;;;11.40;;
4074;SDS011;2052;53.522;9.806;2023-05-07T04:10:33;18.93;;;12.03;;
4074;SDS011;2052;53.522;9.806;2023-05-07T04:13:00;18.13;;;10.37;;
4074;SDS011;2052;53.522;9.806;2023-05-07T04:15:28;19.60;;;11.87;;
4074;SDS011;2052;53.522;9.806;2023-05-07T04:17:54;18.13;;;10.53;;
4074;SDS011;2052;53.522;9.806;2023-05-07T04:20:21;19.17;;;12.10;;
4074;SDS011;2052;53.522;9.806;2023-05-07T04:22:47;18.87;;;11.67;;
4074;SDS011;2052;53.522;9.806;2023-05-07T04:25:15;17.17;;;11.10;;
4074;SDS011;2052;53.522;9.806;2023-05-07T04:27:42;21.23;;;13.47;;
4074;SDS011;2052;53.522;9.806;2023-05-07T04:30:09;20.30;;;13.20;;
4074;SDS011;2052;53.522;9.806;2023-05-07T04:32:37;16.83;;;11.27;;
4074;SDS011;2052;53.522;9.806;2023-05-07T04:35:05;17.10;;;11.13;;
4074;SDS011;2052;53.522;9.806;2023-05-07T04:37:33;15.93;;;10.90;;
4074;SDS011;2052;53.522;9.806;2023-05-07T04:40:00;18.87;;;11.90;;
4074;SDS011;2052;53.522;9.806;2023-05-07T04:42:27;16.53;;;11.17;;
4074;SDS011;2052;53.522;9.806;2023-05-07T04:44:54;19.30;;;11.63;;
4074;SDS011;2052;53.522;9.806;2023-05-07T04:47:21;16.40;;;11.73;;
4074;SDS011;2052;53.522;9.806;2023-05-07T04:49:51;16.67;;;10.77;;
4074;SDS011;2052;53.522;9.806;2023-05-07T04:52:18;18.97;;;11.70;;
4074;SDS011;2052;53.522;9.806;2023-05-07T04:54:45;19.37;;;12.00;;
4074;SDS011;2052;53.522;9.806;2023-05-07T04:57:11;17.53;;;11.30;;
4074;SDS011;2052;53.522;9.806;2023-05-07T04:59:38;16.87;;;11.23;;
4074;SDS011;2052;53.522;9.806;2023-05-07T05:02:05;16.23;;;10.30;;
4074;SDS011;2052;53.522;9.806;2023-05-07T05:04:31;21.53;;;12.27;;
4074;SDS011;2052;53.522;9.806;2023-05-07T05:06:59;17.10;;;11.00;;
4074;SDS011;2052;53.522;9.806;2023-05-07T05:09:28;15.47;;;10.57;;
4074;SDS011;2052;53.522;9.806;2023-05-07T05:11:55;15.60;;;10.70;;
4074;SDS011;2052;53.522;9.806;2023-05-07T05:14:24;19.57;;;12.00;;
4074;SDS011;2052;53.522;9.806;2023-05-07T05:16:50;19.70;;;12.33;;
4074;SDS011;2052;53.522;9.806;2023-05-07T05:19:17;18.47;;;12.37;;
4074;SDS011;2052;53.522;9.806;2023-05-07T05:21:44;16.37;;;11.33;;
4074;SDS011;2052;53.522;9.806;2023-05-07T05:24:12;19.03;;;12.37;;
4074;SDS011;2052;53.522;9.806;2023-05-07T05:26:39;16.13;;;12.20;;
4074;SDS011;2052;53.522;9.806;2023-05-07T05:29:08;16.83;;;11.07;;
4074;SDS011;2052;53.522;9.806;2023-05-07T05:31:35;21.10;;;11.40;;
4074;SDS011;2052;53.522;9.806;2023-05-07T05:34:02;18.93;;;12.27;;
4074;SDS011;2052;53.522;9.806;2023-05-07T05:36:30;17.37;;;12.13;;
4074;SDS011;2052;53.522;9.806;2023-05-07T05:38:56;17.00;;;10.43;;
4074;SDS011;2052;53.522;9.806;2023-05-07T05:41:25;17.27;;;11.17;;
4074;SDS011;2052;53.522;9.806;2023-05-07T05:43:51;17.60;;;11.00;;
4074;SDS011;2052;53.522;9.806;2023-05-07T05:46:18;18.20;;;11.83;;
4074;SDS011;2052;53.522;9.806;2023-05-07T05:48:45;17.03;;;11.50;;
4074;SDS011;2052;53.522;9.806;2023-05-07T05:51:12;18.60;;;12.43;;
4074;SDS011;2052;53.522;9.806;2023-05-07T05:53:39;20.03;;;12.23;;
4074;SDS011;2052;53.522;9.806;2023-05-07T05:56:06;18.40;;;11.07;;
4074;SDS011;2052;53.522;9.806;2023-05-07T05:58:34;19.07;;;11.60;;
4074;SDS011;2052;53.522;9.806;2023-05-07T06:01:01;16.63;;;11.30;;
4074;SDS011;2052;53.522;9.806;2023-05-07T06:03:28;20.37;;;11.43;;
4074;SDS011;2052;53.522;9.806;2023-05-07T06:05:55;18.40;;;12.07;;
4074;SDS011;2052;53.522;9.806;2023-05-07T06:08:22;23.20;;;11.63;;
4074;SDS011;2052;53.522;9.806;2023-05-07T06:10:48;18.93;;;12.27;;
4074;SDS011;2052;53.522;9.806;2023-05-07T06:13:15;19.03;;;11.67;;
4074;SDS011;2052;53.522;9.806;2023-05-07T06:15:43;18.07;;;12.37;;
4074;SDS011;2052;53.522;9.806;2023-05-07T06:18:10;17.10;;;11.43;;
4074;SDS011;2052;53.522;9.806;2023-05-07T06:20:36;15.70;;;11.23;;
4074;SDS011;2052;53.522;9.806;2023-05-07T06:23:04;17.60;;;11.53;;
4074;SDS011;2052;53.522;9.806;2023-05-07T06:25:35;19.23;;;11.10;;
4074;SDS011;2052;53.522;9.806;2023-05-07T06:28:02;17.83;;;10.83;;
4074;SDS011;2052;53.522;9.806;2023-05-07T06:30:29;16.07;;;10.40;;
4074;SDS011;2052;53.522;9.806;2023-05-07T06:32:57;17.50;;;10.77;;
4074;SDS011;2052;53.522;9.806;2023-05-07T06:35:24;18.80;;;10.90;;
4074;SDS011;2052;53.522;9.806;2023-05-07T06:37:55;16.60;;;10.03;;
4074;SDS011;2052;53.522;9.806;2023-05-07T06:40:29;18.37;;;11.77;;
4074;SDS011;2052;53.522;9.806;2023-05-07T06:42:56;16.13;;;10.50;;
4074;SDS011;2052;53.522;9.806;2023-05-07T06:45:24;14.17;;;10.30;;
4074;SDS011;2052;53.522;9.806;2023-05-07T06:47:51;16.80;;;10.70;;
4074;SDS011;2052;53.522;9.806;2023-05-07T06:50:22;13.97;;;10.13;;
4074;SDS011;2052;53.522;9.806;2023-05-07T06:52:49;15.53;;;10.23;;
4074;SDS011;2052;53.522;9.806;2023-05-07T06:55:16;15.83;;;9.73;;
4074;SDS011;2052;53.522;9.806;2023-05-07T06:57:49;18.70;;;11.20;;
4074;SDS011;2052;53.522;9.806;2023-05-07T07:00:18;12.60;;;9.87;;
4074;SDS011;2052;53.522;9.806;2023-05-07T07:02:46;16.80;;;11.73;;
4074;SDS011;2052;53.522;9.806;2023-05-07T07:05:12;14.30;;;9.80;;
4074;SDS011;2052;53.522;9.806;2023-05-07T07:07:44;15.60;;;9.73;;
4074;SDS011;2052;53.522;9.806;2023-05-07T07:10:17;13.97;;;9.53;;
4074;SDS011;2052;53.522;9.806;2023-05-07T07:12:44;11.80;;;8.90;;
4074;SDS011;2052;53.522;9.806;2023-05-07T07:15:15;13.90;;;10.00;;
4074;SDS011;2052;53.522;9.806;2023-05-07T07:17:43;19.10;;;10.80;;
4074;SDS011;2052;53.522;9.806;2023-05-07T07:20:10;14.37;;;9.27;;
4074;SDS011;2052;53.522;9.806;2023-05-07T07:22:37;11.73;;;8.67;;
4074;SDS011;2052;53.522;9.806;2023-05-07T07:25:06;15.57;;;10.10;;
4074;SDS011;2052;53.522;9.806;2023-05-07T07:27:34;15.27;;;9.93;;
4074;SDS011;2052;53.522;9.806;2023-05-07T07:30:02;13.93;;;9.47;;
4074;SDS011;2052;53.522;9.806;2023-05-07T07:32:31;18.23;;;9.60;;
4074;SDS011;2052;53.522;9.806;2023-05-07T07:35:00;19.40;;;9.43;;
4074;SDS011;2052;53.522;9.806;2023-05-07T07:37:32;12.67;;;8.80;;
4074;SDS011;2052;53.522;9.806;2023-05-07T07:40:02;14.47;;;9.70;;
4074;SDS011;2052;53.522;9.806;2023-05-07T07:42:31;14.03;;;9.03;;
4074;SDS011;2052;53.522;9.806;2023-05-07T07:44:58;12.63;;;9.13;;
4074;SDS011;2052;53.522;9.806;2023-05-07T07:47:29;11.83;;;8.87;;
4074;SDS011;2052;53.522;9.806;2023-05-07T07:49:55;13.57;;;8.77;;
4074;SDS011;2052;53.522;9.806;2023-05-07T07:52:22;12.20;;;7.50;;
4074;SDS011;2052;53.522;9.806;2023-05-07T07:54:50;10.27;;;7.30;;
4074;SDS011;2052;53.522;9.806;2023-05-07T07:57:19;12.47;;;7.90;;
4074;SDS011;2052;53.522;9.806;2023-05-07T07:59:49;12.30;;;8.67;;
4074;SDS011;2052;53.522;9.806;2023-05-07T08:02:20;14.13;;;9.47;;
4074;SDS011;2052;53.522;9.806;2023-05-07T08:04:48;11.77;;;7.80;;
4074;SDS011;2052;53.522;9.806;2023-05-07T08:07:15;14.40;;;9.50;;
4074;SDS011;2052;53.522;9.806;2023-05-07T08:09:44;10.80;;;7.67;;
4074;SDS011;2052;53.522;9.806;2023-05-07T08:12:11;13.37;;;8.33;;
4074;SDS011;2052;53.522;9.806;2023-05-07T08:14:40;12.10;;;8.23;;
4074;SDS011;2052;53.522;9.806;2023-05-07T08:17:09;10.63;;;8.07;;
4074;SDS011;2052;53.522;9.806;2023-05-07T08:19:49;11.73;;;8.03;;
4074;SDS011;2052;53.522;9.806;2023-05-07T08:22:17;11.67;;;8.63;;
4074;SDS011;2052;53.522;9.806;2023-05-07T08:24:46;11.27;;;7.90;;
4074;SDS011;2052;53.522;9.806;2023-05-07T08:27:16;11.30;;;8.73;;
4074;SDS011;2052;53.522;9.806;2023-05-07T08:29:43;14.57;;;9.17;;
4074;SDS011;2052;53.522;9.806;2023-05-07T08:32:16;10.20;;;8.00;;
4074;SDS011;2052;53.522;9.806;2023-05-07T08:34:56;11.60;;;8.37;;
4074;SDS011;2052;53.522;9.806;2023-05-07T08:37:27;17.03;;;8.80;;
4074;SDS011;2052;53.522;9.806;2023-05-07T08:39:53;11.80;;;8.70;;
4074;SDS011;2052;53.522;9.806;2023-05-07T08:42:20;16.03;;;8.33;;
4074;SDS011;2052;53.522;9.806;2023-05-07T08:44:49;11.90;;;8.27;;
4074;SDS011;2052;53.522;9.806;2023-05-07T08:47:19;15.30;;;9.00;;
4074;SDS011;2052;53.522;9.806;2023-05-07T08:49:48;11.60;;;7.90;;
4074;SDS011;2052;53.522;9.806;2023-05-07T08:52:15;10.43;;;7.60;;
4074;SDS011;2052;53.522;9.806;2023-05-07T08:54:42;14.50;;;7.97;;
4074;SDS011;2052;53.522;9.806;2023-05-07T08:57:09;11.47;;;8.23;;
4074;SDS011;2052;53.522;9.806;2023-05-07T08:59:36;9.47;;;7.17;;
4074;SDS011;2052;53.522;9.806;2023-05-07T09:02:02;10.33;;;7.23;;
4074;SDS011;2052;53.522;9.806;2023-05-07T09:04:32;10.00;;;7.10;;
4074;SDS011;2052;53.522;9.806;2023-05-07T09:06:59;8.23;;;7.10;;
4074;SDS011;2052;53.522;9.806;2023-05-07T09:09:31;9.17;;;7.63;;
4074;SDS011;2052;53.522;9.806;2023-05-07T09:11:59;12.50;;;8.70;;
4074;SDS011;2052;53.522;9.806;2023-05-07T09:14:27;10.97;;;8.27;;
4074;SDS011;2052;53.522;9.806;2023-05-07T09:16:53;11.80;;;8.03;;
4074;SDS011;2052;53.522;9.806;2023-05-07T09:19:22;10.67;;;7.07;;
4074;SDS011;2052;53.522;9.806;2023-05-07T09:21:50;9.97;;;7.20;;
4074;SDS011;2052;53.522;9.806;2023-05-07T09:24:24;9.40;;;7.23;;
4074;SDS011;2052;53.522;9.806;2023-05-07T09:26:51;14.03;;;7.90;;
4074;SDS011;2052;53.522;9.806;2023-05-07T09:29:17;9.97;;;8.23;;
4074;SDS011;2052;53.522;9.806;2023-05-07T09:31:44;11.20;;;8.13;;
4074;SDS011;2052;53.522;9.806;2023-05-07T09:34:11;9.77;;;8.33;;
4074;SDS011;2052;53.522;9.806;2023-05-07T09:36:37;10.83;;;8.20;;
4074;SDS011;2052;53.522;9.806;2023-05-07T09:39:06;10.83;;;7.97;;
4074;SDS011;2052;53.522;9.806;2023-05-07T09:41:33;10.33;;;7.83;;
4074;SDS011;2052;53.522;9.806;2023-05-07T09:44:09;13.97;;;8.67;;
4074;SDS011;2052;53.522;9.806;2023-05-07T09:46:36;11.40;;;8.33;;
4074;SDS011;2052;53.522;9.806;2023-05-07T09:49:04;11.77;;;8.77;;
4074;SDS011;2052;53.522;9.806;2023-05-07T09:51:36;11.67;;;8.70;;
4074;SDS011;2052;53.522;9.806;2023-05-07T09:54:09;12.03;;;8.80;;
4074;SDS011;2052;53.522;9.806;2023-05-07T09:56:36;12.40;;;8.70;;
4074;SDS011;2052;53.522;9.806;2023-05-07T09:59:03;10.80;;;8.50;;
4074;SDS011;2052;53.522;9.806;2023-05-07T10:01:31;10.73;;;8.30;;
4074;SDS011;2052;53.522;9.806;2023-05-07T10:03:59;11.20;;;8.30;;
4074;SDS011;2052;53.522;9.806;2023-05-07T10:06:25;9.13;;;7.87;;
4074;SDS011;2052;53.522;9.806;2023-05-07T10:08:52;12.33;;;8.53;;
4074;SDS011;2052;53.522;9.806;2023-05-07T10:11:20;13.20;;;9.37;;
4074;SDS011;2052;53.522;9.806;2023-05-07T10:13:48;9.70;;;8.00;;
4074;SDS011;2052;53.522;9.806;2023-05-07T10:16:14;11.70;;;8.40;;
4074;SDS011;2052;53.522;9.806;2023-05-07T10:18:41;14.03;;;8.73;;
4074;SDS011;2052;53.522;9.806;2023-05-07T10:21:11;8.83;;;7.70;;
4074;SDS011;2052;53.522;9.806;2023-05-07T10:23:39;11.60;;;8.20;;
4074;SDS011;2052;53.522;9.806;2023-05-07T10:26:07;12.93;;;9.13;;
4074;SDS011;2052;53.522;9.806;2023-05-07T10:28:36;10.57;;;8.53;;
4074;SDS011;2052;53.522;9.806;2023-05-07T10:31:08;12.13;;;8.50;;
4074;SDS011;2052;53.522;9.806;2023-05-07T10:33:42;11.03;;;8.20;;
4074;SDS011;2052;53.522;9.806;2023-05-07T10:36:11;12.60;;;8.43;;
4074;SDS011;2052;53.522;9.806;2023-05-07T10:38:37;16.00;;;10.30;;
4074;SDS011;2052;53.522;9.806;2023-05-07T10:41:07;16.23;;;8.67;;
4074;SDS011;2052;53.522;9.806;2023-05-07T10:43:41;12.43;;;7.80;;
4074;SDS011;2052;53.522;9.806;2023-05-07T10:46:15;13.10;;;8.70;;
4074;SDS011;2052;53.522;9.806;2023-05-07T10:51:36;11.07;;;9.07;;
4074;SDS011;2052;53.522;9.806;2023-05-07T10:54:21;11.73;;;8.90;;
4074;SDS011;2052;53.522;9.806;2023-05-07T10:56:49;10.20;;;8.80;;
4074;SDS011;2052;53.522;9.806;2023-05-07T10:59:36;12.10;;;8.77;;
4074;SDS011;2052;53.522;9.806;2023-05-07T11:02:10;9.83;;;7.50;;
4074;SDS011;2052;53.522;9.806;2023-05-07T11:04:40;12.17;;;8.70;;
4074;SDS011;2052;53.522;9.806;2023-05-07T11:07:20;10.20;;;7.83;;
4074;SDS011;2052;53.522;9.806;2023-05-07T11:10:06;13.50;;;8.00;;
4074;SDS011;2052;53.522;9.806;2023-05-07T11:12:52;11.67;;;8.90;;
4074;SDS011;2052;53.522;9.806;2023-05-07T11:15:37;9.80;;;7.40;;
4074;SDS011;2052;53.522;9.806;2023-05-07T11:18:06;9.23;;;7.53;;
4074;SDS011;2052;53.522;9.806;2023-05-07T11:20:47;12.07;;;8.63;;
4074;SDS011;2052;53.522;9.806;2023-05-07T11:26:24;10.70;;;7.60;;
4074;SDS011;2052;53.522;9.806;2023-05-07T11:28:52;10.40;;;8.50;;
4074;SDS011;2052;53.522;9.806;2023-05-07T11:31:36;13.37;;;7.60;;
4074;SDS011;2052;53.522;9.806;2023-05-07T11:34:14;10.40;;;7.63;;
4074;SDS011;2052;53.522;9.806;2023-05-07T11:36:42;10.93;;;8.97;;
4074;SDS011;2052;53.522;9.806;2023-05-07T11:42:08;8.90;;;7.17;;
4074;SDS011;2052;53.522;9.806;2023-05-07T11:44:51;9.57;;;7.77;;
4074;SDS011;2052;53.522;9.806;2023-05-07T11:47:20;8.90;;;7.80;;
4074;SDS011;2052;53.522;9.806;2023-05-07T11:49:47;8.80;;;7.23;;
4074;SDS011;2052;53.522;9.806;2023-05-07T11:52:14;8.10;;;6.60;;
4074;SDS011;2052;53.522;9.806;2023-05-07T11:54:41;8.00;;;7.00;;
4074;SDS011;2052;53.522;9.806;2023-05-07T11:57:14;8.23;;;7.20;;
4074;SDS011;2052;53.522;9.806;2023-05-07T11:59:41;10.37;;;7.50;;
4074;SDS011;2052;53.522;9.806;2023-05-07T12:02:10;13.80;;;7.93;;
4074;SDS011;2052;53.522;9.806;2023-05-07T12:04:39;8.60;;;7.50;;
4074;SDS011;2052;53.522;9.806;2023-05-07T12:07:10;9.93;;;7.00;;
4074;SDS011;2052;53.522;9.806;2023-05-07T12:09:37;9.47;;;7.90;;
4074;SDS011;2052;53.522;9.806;2023-05-07T12:12:06;12.30;;;7.07;;
4074;SDS011;2052;53.522;9.806;2023-05-07T12:14:37;9.43;;;7.53;;
4074;SDS011;2052;53.522;9.806;2023-05-07T12:17:04;11.13;;;7.67;;
4074;SDS011;2052;53.522;9.806;2023-05-07T12:19:30;8.57;;;6.90;;
4074;SDS011;2052;53.522;9.806;2023-05-07T12:21:59;13.20;;;8.30;;
4074;SDS011;2052;53.522;9.806;2023-05-07T12:24:26;8.97;;;6.47;;
4074;SDS011;2052;53.522;9.806;2023-05-07T12:26:54;9.30;;;6.73;;
4074;SDS011;2052;53.522;9.806;2023-05-07T12:29:22;17.40;;;6.47;;
4074;SDS011;2052;53.522;9.806;2023-05-07T12:31:49;11.23;;;7.00;;
4074;SDS011;2052;53.522;9.806;2023-05-07T12:34:16;9.10;;;7.77;;
4074;SDS011;2052;53.522;9.806;2023-05-07T12:36:43;9.50;;;6.77;;
4074;SDS011;2052;53.522;9.806;2023-05-07T12:39:13;8.40;;;7.00;;
4074;SDS011;2052;53.522;9.806;2023-05-07T12:44:29;7.97;;;7.10;;
4074;SDS011;2052;53.522;9.806;2023-05-07T12:46:58;8.30;;;6.33;;
4074;SDS011;2052;53.522;9.806;2023-05-07T12:49:25;7.37;;;6.67;;
4074;SDS011;2052;53.522;9.806;2023-05-07T12:51:55;9.07;;;7.37;;
4074;SDS011;2052;53.522;9.806;2023-05-07T12:54:30;6.47;;;5.87;;
4074;SDS011;2052;53.522;9.806;2023-05-07T12:57:02;7.30;;;5.90;;
4074;SDS011;2052;53.522;9.806;2023-05-07T12:59:33;7.83;;;5.23;;
4074;SDS011;2052;53.522;9.806;2023-05-07T13:02:00;8.73;;;5.97;;
4074;SDS011;2052;53.522;9.806;2023-05-07T13:04:27;7.80;;;5.90;;
4074;SDS011;2052;53.522;9.806;2023-05-07T13:06:55;5.93;;;5.33;;
4074;SDS011;2052;53.522;9.806;2023-05-07T13:09:21;9.67;;;5.30;;
4074;SDS011;2052;53.522;9.806;2023-05-07T13:11:49;5.17;;;4.50;;
4074;SDS011;2052;53.522;9.806;2023-05-07T13:14:16;5.63;;;5.13;;
4074;SDS011;2052;53.522;9.806;2023-05-07T13:16:43;7.67;;;6.07;;
4074;SDS011;2052;53.522;9.806;2023-05-07T13:19:10;5.50;;;5.00;;
4074;SDS011;2052;53.522;9.806;2023-05-07T13:21:36;5.37;;;4.73;;
4074;SDS011;2052;53.522;9.806;2023-05-07T13:24:03;7.83;;;5.50;;
4074;SDS011;2052;53.522;9.806;2023-05-07T13:26:30;6.27;;;5.30;;
4074;SDS011;2052;53.522;9.806;2023-05-07T13:28:59;6.00;;;5.13;;
4074;SDS011;2052;53.522;9.806;2023-05-07T13:31:28;8.50;;;5.60;;
4074;SDS011;2052;53.522;9.806;2023-05-07T13:33:55;5.10;;;4.70;;
4074;SDS011;2052;53.522;9.806;2023-05-07T13:36:23;7.03;;;5.53;;
4074;SDS011;2052;53.522;9.806;2023-05-07T13:38:50;5.60;;;4.80;;
4074;SDS011;2052;53.522;9.806;2023-05-07T13:41:17;5.13;;;4.63;;
4074;SDS011;2052;53.522;9.806;2023-05-07T13:43:44;5.43;;;4.67;;
4074;SDS011;2052;53.522;9.806;2023-05-07T13:46:16;4.53;;;4.13;;
4074;SDS011;2052;53.522;9.806;2023-05-07T13:48:43;5.33;;;4.63;;
4074;SDS011;2052;53.522;9.806;2023-05-07T13:51:16;5.40;;;4.80;;
4074;SDS011;2052;53.522;9.806;2023-05-07T13:53:43;6.77;;;5.53;;
4074;SDS011;2052;53.522;9.806;2023-05-07T13:56:10;6.00;;;5.40;;
4074;SDS011;2052;53.522;9.806;2023-05-07T13:58:36;5.30;;;4.80;;
4074;SDS011;2052;53.522;9.806;2023-05-07T14:01:03;5.47;;;4.70;;
4074;SDS011;2052;53.522;9.806;2023-05-07T14:03:31;15.37;;;4.57;;
4074;SDS011;2052;53.522;9.806;2023-05-07T14:05:58;5.47;;;4.50;;
4074;SDS011;2052;53.522;9.806;2023-05-07T14:08:26;4.97;;;4.40;;
4074;SDS011;2052;53.522;9.806;2023-05-07T14:10:53;4.67;;;4.27;;
4074;SDS011;2052;53.522;9.806;2023-05-07T14:13:20;7.83;;;5.20;;
4074;SDS011;2052;53.522;9.806;2023-05-07T14:15:46;7.60;;;4.90;;
4074;SDS011;2052;53.522;9.806;2023-05-07T14:18:14;4.97;;;4.20;;
4074;SDS011;2052;53.522;9.806;2023-05-07T14:20:42;6.30;;;4.50;;
4074;SDS011;2052;53.522;9.806;2023-05-07T14:23:11;5.20;;;4.27;;
4074;SDS011;2052;53.522;9.806;2023-05-07T14:25:37;6.03;;;4.40;;
4074;SDS011;2052;53.522;9.806;2023-05-07T14:28:04;4.83;;;4.40;;
4074;SDS011;2052;53.522;9.806;2023-05-07T14:30:35;4.50;;;3.60;;
4074;SDS011;2052;53.522;9.806;2023-05-07T14:33:02;6.20;;;4.23;;
4074;SDS011;2052;53.522;9.806;2023-05-07T14:35:29;4.33;;;3.60;;
4074;SDS011;2052;53.522;9.806;2023-05-07T14:37:57;5.60;;;4.30;;
4074;SDS011;2052;53.522;9.806;2023-05-07T14:40:24;7.17;;;3.83;;
4074;SDS011;2052;53.522;9.806;2023-05-07T14:42:52;5.40;;;4.10;;
4074;SDS011;2052;53.522;9.806;2023-05-07T14:45:18;4.83;;;3.93;;
4074;SDS011;2052;53.522;9.806;2023-05-07T14:47:46;4.73;;;4.20;;
4074;SDS011;2052;53.522;9.806;2023-05-07T14:50:13;5.50;;;4.40;;
4074;SDS011;2052;53.522;9.806;2023-05-07T14:52:45;6.17;;;4.80;;
4074;SDS011;2052;53.522;9.806;2023-05-07T14:55:18;4.87;;;4.23;;
4074;SDS011;2052;53.522;9.806;2023-05-07T14:57:47;7.00;;;3.97;;
4074;SDS011;2052;53.522;9.806;2023-05-07T15:00:25;3.90;;;3.50;;
4074;SDS011;2052;53.522;9.806;2023-05-07T15:02:53;5.87;;;3.60;;
4074;SDS011;2052;53.522;9.806;2023-05-07T15:05:27;5.10;;;4.03;;
4074;SDS011;2052;53.522;9.806;2023-05-07T15:07:56;4.60;;;4.20;;
4074;SDS011;2052;53.522;9.806;2023-05-07T15:10:28;3.80;;;3.40;;
4074;SDS011;2052;53.522;9.806;2023-05-07T15:13:05;3.43;;;3.13;;
4074;SDS011;2052;53.522;9.806;2023-05-07T15:15:40;5.23;;;3.90;;
4074;SDS011;2052;53.522;9.806;2023-05-07T15:18:19;5.53;;;3.23;;